sensor_id;sensor_type;location;lat;lon;timestamp;pressure;altitude;pressure_sealevel;temperature
68127;BMP180;54931;52.098;21.006;2023-04-01T00:01:15;98332.60;;;8.60
68127;BMP180;54931;52.098;21.006;2023-04-01T00:03:44;98328.20;;;8.60
68127;BMP180;54931;52.098;21.006;2023-04-01T00:06:18;98328.80;;;8.60
68127;BMP180;54931;52.098;21.006;2023-04-01T00:08:46;98322.20;;;8.60
68127;BMP180;54931;52.098;21.006;2023-04-01T00:11:14;98319.40;;;8.52
68127;BMP180;54931;52.098;21.006;2023-04-01T00:13:43;98318.00;;;8.50
68127;BMP180;54931;52.098;21.006;2023-04-01T00:16:15;98312.60;;;8.50
68127;BMP180;54931;52.098;21.006;2023-04-01T00:18:43;98309.20;;;8.40
68127;BMP180;54931;52.098;21.006;2023-04-01T00:21:10;98307.00;;;8.38
68127;BMP180;54931;52.098;21.006;2023-04-01T00:23:37;98307.60;;;8.30
68127;BMP180;54931;52.098;21.006;2023-04-01T00:26:05;98309.80;;;8.26
68127;BMP180;54931;52.098;21.006;2023-04-01T00:28:34;98314.40;;;8.20
68127;BMP180;54931;52.098;21.006;2023-04-01T00:31:10;98317.60;;;8.20
68127;BMP180;54931;52.098;21.006;2023-04-01T00:33:39;98314.00;;;8.20
68127;BMP180;54931;52.098;21.006;2023-04-01T00:36:13;98310.80;;;8.10
68127;BMP180;54931;52.098;21.006;2023-04-01T00:38:42;98306.00;;;8.10
68127;BMP180;54931;52.098;21.006;2023-04-01T00:41:12;98306.00;;;8.10
68127;BMP180;54931;52.098;21.006;2023-04-01T00:43:46;98300.00;;;8.10
68127;BMP180;54931;52.098;21.006;2023-04-01T00:46:14;98301.80;;;8.00
68127;BMP180;54931;52.098;21.006;2023-04-01T00:48:48;98307.00;;;8.00
68127;BMP180;54931;52.098;21.006;2023-04-01T00:51:29;98308.80;;;7.90
68127;BMP180;54931;52.098;21.006;2023-04-01T00:54:00;98310.60;;;7.90
68127;BMP180;54931;52.098;21.006;2023-04-01T00:56:40;98306.40;;;7.80
68127;BMP180;54931;52.098;21.006;2023-04-01T00:59:19;98304.20;;;7.80
68127;BMP180;54931;52.098;21.006;2023-04-01T01:01:47;98303.80;;;7.70
68127;BMP180;54931;52.098;21.006;2023-04-01T01:04:31;98305.20;;;7.68
68127;BMP180;54931;52.098;21.006;2023-04-01T01:07:32;98305.20;;;7.60
68127;BMP180;54931;52.098;21.006;2023-04-01T01:10:31;98305.00;;;7.60
68127;BMP180;54931;52.098;21.006;2023-04-01T01:15:59;98306.60;;;7.60
68127;BMP180;54931;52.098;21.006;2023-04-01T01:18:49;98308.20;;;7.60
68127;BMP180;54931;52.098;21.006;2023-04-01T01:27:19;98302.40;;;7.60
68127;BMP180;54931;52.098;21.006;2023-04-01T01:30:11;98304.80;;;7.60
68127;BMP180;54931;52.098;21.006;2023-04-01T01:32:55;98309.00;;;7.60
68127;BMP180;54931;52.098;21.006;2023-04-01T01:35:37;98311.00;;;7.60
68127;BMP180;54931;52.098;21.006;2023-04-01T01:38:14;98313.40;;;7.60
68127;BMP180;54931;52.098;21.006;2023-04-01T01:40:47;98312.60;;;7.60
68127;BMP180;54931;52.098;21.006;2023-04-01T01:43:23;98312.80;;;7.62
68127;BMP180;54931;52.098;21.006;2023-04-01T01:45:57;98311.00;;;7.70
68127;BMP180;54931;52.098;21.006;2023-04-01T01:48:27;98311.40;;;7.70
68127;BMP180;54931;52.098;21.006;2023-04-01T01:50:57;98307.00;;;7.72
68127;BMP180;54931;52.098;21.006;2023-04-01T01:53:25;98306.00;;;7.80
68127;BMP180;54931;52.098;21.006;2023-04-01T01:55:52;98303.80;;;7.80
68127;BMP180;54931;52.098;21.006;2023-04-01T01:58:39;98300.40;;;7.80
68127;BMP180;54931;52.098;21.006;2023-04-01T02:01:17;98298.20;;;7.80
68127;BMP180;54931;52.098;21.006;2023-04-01T02:03:48;98295.00;;;7.86
68127;BMP180;54931;52.098;21.006;2023-04-01T02:06:21;98289.80;;;7.88
68127;BMP180;54931;52.098;21.006;2023-04-01T02:08:54;98286.80;;;7.90
68127;BMP180;54931;52.098;21.006;2023-04-01T02:11:30;98286.60;;;7.90
68127;BMP180;54931;52.098;21.006;2023-04-01T02:14:10;98286.00;;;7.90
68127;BMP180;54931;52.098;21.006;2023-04-01T02:17:02;98282.40;;;7.90
68127;BMP180;54931;52.098;21.006;2023-04-01T02:19:39;98282.80;;;7.90
68127;BMP180;54931;52.098;21.006;2023-04-01T02:22:13;98281.80;;;7.90
68127;BMP180;54931;52.098;21.006;2023-04-01T02:24:42;98283.20;;;7.82
68127;BMP180;54931;52.098;21.006;2023-04-01T02:27:11;98275.40;;;7.80
68127;BMP180;54931;52.098;21.006;2023-04-01T02:29:39;98274.20;;;7.80
68127;BMP180;54931;52.098;21.006;2023-04-01T02:32:09;98275.80;;;7.80
68127;BMP180;54931;52.098;21.006;2023-04-01T02:34:38;98274.20;;;7.70
68127;BMP180;54931;52.098;21.006;2023-04-01T02:37:07;98268.60;;;7.68
68127;BMP180;54931;52.098;21.006;2023-04-01T02:39:34;98268.20;;;7.60
68127;BMP180;54931;52.098;21.006;2023-04-01T02:42:03;98267.20;;;7.50
68127;BMP180;54931;52.098;21.006;2023-04-01T02:44:30;98269.00;;;7.40
68127;BMP180;54931;52.098;21.006;2023-04-01T02:46:58;98267.60;;;7.40
68127;BMP180;54931;52.098;21.006;2023-04-01T02:49:26;98270.60;;;7.30
68127;BMP180;54931;52.098;21.006;2023-04-01T02:51:54;98269.40;;;7.22
68127;BMP180;54931;52.098;21.006;2023-04-01T02:54:21;98269.60;;;7.20
68127;BMP180;54931;52.098;21.006;2023-04-01T02:56:49;98272.80;;;7.10
68127;BMP180;54931;52.098;21.006;2023-04-01T02:59:16;98272.40;;;7.06
68127;BMP180;54931;52.098;21.006;2023-04-01T03:01:44;98277.40;;;7.00
68127;BMP180;54931;52.098;21.006;2023-04-01T03:04:12;98283.20;;;6.90
68127;BMP180;54931;52.098;21.006;2023-04-01T03:06:39;98281.60;;;6.80
68127;BMP180;54931;52.098;21.006;2023-04-01T03:09:07;98285.40;;;6.80
68127;BMP180;54931;52.098;21.006;2023-04-01T03:11:35;98286.60;;;6.80
68127;BMP180;54931;52.098;21.006;2023-04-01T03:14:03;98289.20;;;6.78
68127;BMP180;54931;52.098;21.006;2023-04-01T03:16:30;98295.00;;;6.80
68127;BMP180;54931;52.098;21.006;2023-04-01T03:18:58;98294.40;;;6.80
68127;BMP180;54931;52.098;21.006;2023-04-01T03:21:29;98291.60;;;6.86
68127;BMP180;54931;52.098;21.006;2023-04-01T03:23:56;98293.80;;;6.90
68127;BMP180;54931;52.098;21.006;2023-04-01T03:26:24;98294.80;;;6.90
68127;BMP180;54931;52.098;21.006;2023-04-01T03:28:54;98298.60;;;6.90
68127;BMP180;54931;52.098;21.006;2023-04-01T03:31:23;98298.20;;;6.86
68127;BMP180;54931;52.098;21.006;2023-04-01T03:33:51;98298.60;;;6.80
68127;BMP180;54931;52.098;21.006;2023-04-01T03:36:19;98298.40;;;6.80
68127;BMP180;54931;52.098;21.006;2023-04-01T03:38:47;98303.60;;;6.76
68127;BMP180;54931;52.098;21.006;2023-04-01T03:41:16;98303.40;;;6.70
68127;BMP180;54931;52.098;21.006;2023-04-01T03:43:45;98308.00;;;6.70
68127;BMP180;54931;52.098;21.006;2023-04-01T03:46:20;98310.60;;;6.74
68127;BMP180;54931;52.098;21.006;2023-04-01T03:48:48;98315.60;;;6.80
68127;BMP180;54931;52.098;21.006;2023-04-01T03:51:15;98316.00;;;6.80
68127;BMP180;54931;52.098;21.006;2023-04-01T03:53:43;98319.60;;;6.84
68127;BMP180;54931;52.098;21.006;2023-04-01T03:56:11;98319.40;;;6.90
68127;BMP180;54931;52.098;21.006;2023-04-01T03:58:39;98317.20;;;6.90
68127;BMP180;54931;52.098;21.006;2023-04-01T04:01:16;98322.20;;;6.94
68127;BMP180;54931;52.098;21.006;2023-04-01T04:03:44;98318.40;;;7.00
68127;BMP180;54931;52.098;21.006;2023-04-01T04:06:17;98323.80;;;7.00
68127;BMP180;54931;52.098;21.006;2023-04-01T04:08:45;98323.80;;;7.04
68127;BMP180;54931;52.098;21.006;2023-04-01T04:11:14;98330.80;;;7.10
68127;BMP180;54931;52.098;21.006;2023-04-01T04:13:43;98336.00;;;7.10
68127;BMP180;54931;52.098;21.006;2023-04-01T04:16:11;98332.60;;;7.10
68127;BMP180;54931;52.098;21.006;2023-04-01T04:18:38;98337.60;;;7.20
68127;BMP180;54931;52.098;21.006;2023-04-01T04:21:06;98342.80;;;7.20
68127;BMP180;54931;52.098;21.006;2023-04-01T04:23:34;98340.80;;;7.20
68127;BMP180;54931;52.098;21.006;2023-04-01T04:26:07;98341.40;;;7.20
68127;BMP180;54931;52.098;21.006;2023-04-01T04:28:37;98346.00;;;7.20
68127;BMP180;54931;52.098;21.006;2023-04-01T04:31:05;98345.80;;;7.20
68127;BMP180;54931;52.098;21.006;2023-04-01T04:33:35;98351.40;;;7.30
68127;BMP180;54931;52.098;21.006;2023-04-01T04:36:03;98344.20;;;7.30
68127;BMP180;54931;52.098;21.006;2023-04-01T04:38:31;98343.20;;;7.30
68127;BMP180;54931;52.098;21.006;2023-04-01T04:40:59;98342.40;;;7.36
68127;BMP180;54931;52.098;21.006;2023-04-01T04:43:26;98346.60;;;7.40
68127;BMP180;54931;52.098;21.006;2023-04-01T04:45:54;98351.20;;;7.40
68127;BMP180;54931;52.098;21.006;2023-04-01T04:48:22;98346.80;;;7.40
68127;BMP180;54931;52.098;21.006;2023-04-01T04:50:51;98348.60;;;7.46
68127;BMP180;54931;52.098;21.006;2023-04-01T04:53:18;98347.80;;;7.50
68127;BMP180;54931;52.098;21.006;2023-04-01T04:55:49;98352.00;;;7.60
68127;BMP180;54931;52.098;21.006;2023-04-01T04:58:18;98354.00;;;7.60
68127;BMP180;54931;52.098;21.006;2023-04-01T05:00:46;98357.80;;;7.70
68127;BMP180;54931;52.098;21.006;2023-04-01T05:03:14;98357.60;;;7.80
68127;BMP180;54931;52.098;21.006;2023-04-01T05:05:50;98361.40;;;7.88
68127;BMP180;54931;52.098;21.006;2023-04-01T05:08:18;98364.80;;;7.98
68127;BMP180;54931;52.098;21.006;2023-04-01T05:10:46;98363.60;;;8.10
68127;BMP180;54931;52.098;21.006;2023-04-01T05:13:14;98360.00;;;8.20
68127;BMP180;54931;52.098;21.006;2023-04-01T05:15:41;98363.40;;;8.40
68127;BMP180;54931;52.098;21.006;2023-04-01T05:18:09;98363.20;;;8.50
68127;BMP180;54931;52.098;21.006;2023-04-01T05:20:38;98363.40;;;8.50
68127;BMP180;54931;52.098;21.006;2023-04-01T05:23:05;98368.20;;;8.50
68127;BMP180;54931;52.098;21.006;2023-04-01T05:25:33;98366.00;;;8.60
68127;BMP180;54931;52.098;21.006;2023-04-01T05:28:00;98368.00;;;8.60
68127;BMP180;54931;52.098;21.006;2023-04-01T05:30:28;98365.20;;;8.64
68127;BMP180;54931;52.098;21.006;2023-04-01T05:32:55;98358.60;;;8.70
68127;BMP180;54931;52.098;21.006;2023-04-01T05:35:23;98360.20;;;8.70
68127;BMP180;54931;52.098;21.006;2023-04-01T05:37:51;98364.40;;;8.70
68127;BMP180;54931;52.098;21.006;2023-04-01T05:40:18;98362.80;;;8.70
68127;BMP180;54931;52.098;21.006;2023-04-01T05:42:46;98363.80;;;8.70
68127;BMP180;54931;52.098;21.006;2023-04-01T05:45:14;98367.40;;;8.76
68127;BMP180;54931;52.098;21.006;2023-04-01T05:47:43;98367.40;;;8.76
68127;BMP180;54931;52.098;21.006;2023-04-01T05:50:11;98373.00;;;8.74
68127;BMP180;54931;52.098;21.006;2023-04-01T05:52:38;98368.60;;;8.80
68127;BMP180;54931;52.098;21.006;2023-04-01T05:55:07;98371.00;;;8.80
68127;BMP180;54931;52.098;21.006;2023-04-01T05:57:34;98374.20;;;8.86
68127;BMP180;54931;52.098;21.006;2023-04-01T06:00:04;98378.40;;;8.90
68127;BMP180;54931;52.098;21.006;2023-04-01T06:02:33;98376.60;;;9.00
68127;BMP180;54931;52.098;21.006;2023-04-01T06:05:19;98378.00;;;9.10
68127;BMP180;54931;52.098;21.006;2023-04-01T06:07:48;98376.80;;;9.20
68127;BMP180;54931;52.098;21.006;2023-04-01T06:10:19;98376.60;;;9.26
68127;BMP180;54931;52.098;21.006;2023-04-01T06:13:10;98381.80;;;9.30
68127;BMP180;54931;52.098;21.006;2023-04-01T06:19:47;98380.80;;;9.46
68127;BMP180;54931;52.098;21.006;2023-04-01T06:26:00;98383.00;;;9.60
68127;BMP180;54931;52.098;21.006;2023-04-01T06:34:48;98391.20;;;9.60
68127;BMP180;54931;52.098;21.006;2023-04-01T06:38:06;98392.40;;;9.60
68127;BMP180;54931;52.098;21.006;2023-04-01T06:40:53;98389.80;;;9.60
68127;BMP180;54931;52.098;21.006;2023-04-01T06:47:01;98385.40;;;9.70
68127;BMP180;54931;52.098;21.006;2023-04-01T06:50:21;98385.60;;;9.74
68127;BMP180;54931;52.098;21.006;2023-04-01T06:53:19;98384.00;;;9.80
68127;BMP180;54931;52.098;21.006;2023-04-01T06:56:17;98385.00;;;9.90
68127;BMP180;54931;52.098;21.006;2023-04-01T06:58:54;98380.60;;;10.00
68127;BMP180;54931;52.098;21.006;2023-04-01T07:01:49;98384.60;;;10.00
68127;BMP180;54931;52.098;21.006;2023-04-01T07:04:24;98380.40;;;10.10
68127;BMP180;54931;52.098;21.006;2023-04-01T07:06:59;98380.60;;;10.10
68127;BMP180;54931;52.098;21.006;2023-04-01T07:09:41;98379.00;;;10.10
68127;BMP180;54931;52.098;21.006;2023-04-01T07:12:23;98385.40;;;10.10
68127;BMP180;54931;52.098;21.006;2023-04-01T07:14:58;98388.60;;;10.10
68127;BMP180;54931;52.098;21.006;2023-04-01T07:17:32;98383.00;;;10.10
68127;BMP180;54931;52.098;21.006;2023-04-01T07:20:12;98382.80;;;10.10
68127;BMP180;54931;52.098;21.006;2023-04-01T07:22:48;98381.60;;;10.10
68127;BMP180;54931;52.098;21.006;2023-04-01T07:25:27;98381.80;;;10.20
68127;BMP180;54931;52.098;21.006;2023-04-01T07:28:04;98385.80;;;10.30
68127;BMP180;54931;52.098;21.006;2023-04-01T07:31:18;98384.20;;;10.30
68127;BMP180;54931;52.098;21.006;2023-04-01T07:36:42;98379.60;;;10.40
68127;BMP180;54931;52.098;21.006;2023-04-01T07:41:52;98379.40;;;10.70
68127;BMP180;54931;52.098;21.006;2023-04-01T07:59:40;98386.40;;;11.00
68127;BMP180;54931;52.098;21.006;2023-04-01T08:05:29;98388.20;;;10.80
68127;BMP180;54931;52.098;21.006;2023-04-01T08:08:13;98386.80;;;10.70
68127;BMP180;54931;52.098;21.006;2023-04-01T08:23:03;98397.00;;;10.30
68127;BMP180;54931;52.098;21.006;2023-04-01T08:25:34;98401.40;;;10.30
68127;BMP180;54931;52.098;21.006;2023-04-01T08:28:32;98400.80;;;10.20
68127;BMP180;54931;52.098;21.006;2023-04-01T08:31:51;98404.80;;;10.20
68127;BMP180;54931;52.098;21.006;2023-04-01T08:34:28;98409.60;;;10.22
68127;BMP180;54931;52.098;21.006;2023-04-01T08:37:11;98407.60;;;10.30
68127;BMP180;54931;52.098;21.006;2023-04-01T08:40:16;98407.80;;;10.30
68127;BMP180;54931;52.098;21.006;2023-04-01T08:52:27;98413.00;;;10.60
68127;BMP180;54931;52.098;21.006;2023-04-01T09:00:57;98415.20;;;10.50
68127;BMP180;54931;52.098;21.006;2023-04-01T09:03:56;98420.20;;;10.50
68127;BMP180;54931;52.098;21.006;2023-04-01T09:06:37;98417.60;;;10.50
68127;BMP180;54931;52.098;21.006;2023-04-01T09:24:47;98416.00;;;10.90
68127;BMP180;54931;52.098;21.006;2023-04-01T09:27:44;98421.20;;;10.90
68127;BMP180;54931;52.098;21.006;2023-04-01T09:33:38;98422.20;;;10.90
68127;BMP180;54931;52.098;21.006;2023-04-01T09:36:47;98424.60;;;10.80
68127;BMP180;54931;52.098;21.006;2023-04-01T09:39:42;98424.20;;;10.70
68127;BMP180;54931;52.098;21.006;2023-04-01T09:45:47;98429.80;;;10.50
68127;BMP180;54931;52.098;21.006;2023-04-01T10:00:52;98447.20;;;9.40
68127;BMP180;54931;52.098;21.006;2023-04-01T10:23:18;98458.40;;;9.26
68127;BMP180;54931;52.098;21.006;2023-04-01T10:28:58;98464.20;;;9.18
68127;BMP180;54931;52.098;21.006;2023-04-01T10:31:53;98462.20;;;9.20
68127;BMP180;54931;52.098;21.006;2023-04-01T10:41:31;98464.00;;;9.30
68127;BMP180;54931;52.098;21.006;2023-04-01T10:44:37;98458.60;;;9.38
68127;BMP180;54931;52.098;21.006;2023-04-01T10:56:22;98465.00;;;9.80
68127;BMP180;54931;52.098;21.006;2023-04-01T11:03:10;98466.60;;;10.10
68127;BMP180;54931;52.098;21.006;2023-04-01T11:06:36;98469.20;;;10.18
68127;BMP180;54931;52.098;21.006;2023-04-01T11:24:32;98466.80;;;10.20
68127;BMP180;54931;52.098;21.006;2023-04-01T11:30:53;98467.40;;;10.20
68127;BMP180;54931;52.098;21.006;2023-04-01T11:40:26;98465.80;;;10.10
68127;BMP180;54931;52.098;21.006;2023-04-01T11:43:13;98458.60;;;10.10
68127;BMP180;54931;52.098;21.006;2023-04-01T11:46:10;98462.20;;;10.22
68127;BMP180;54931;52.098;21.006;2023-04-01T11:57:17;98463.80;;;10.70
68127;BMP180;54931;52.098;21.006;2023-04-01T12:00:24;98464.40;;;10.72
68127;BMP180;54931;52.098;21.006;2023-04-01T12:18:27;98477.40;;;10.80
68127;BMP180;54931;52.098;21.006;2023-04-01T12:29:48;98479.40;;;10.64
68127;BMP180;54931;52.098;21.006;2023-04-01T12:35:18;98477.60;;;10.70
68127;BMP180;54931;52.098;21.006;2023-04-01T12:38:03;98481.00;;;10.90
68127;BMP180;54931;52.098;21.006;2023-04-01T12:55:43;98480.20;;;11.50
68127;BMP180;54931;52.098;21.006;2023-04-01T12:59:11;98484.00;;;11.70
68127;BMP180;54931;52.098;21.006;2023-04-01T13:08:04;98486.20;;;12.20
68127;BMP180;54931;52.098;21.006;2023-04-01T13:17:17;98495.60;;;12.50
68127;BMP180;54931;52.098;21.006;2023-04-01T13:23:10;98495.80;;;12.40
68127;BMP180;54931;52.098;21.006;2023-04-01T13:29:15;98500.20;;;12.50
68127;BMP180;54931;52.098;21.006;2023-04-01T13:32:03;98501.40;;;12.60
68127;BMP180;54931;52.098;21.006;2023-04-01T13:34:45;98504.00;;;12.60
68127;BMP180;54931;52.098;21.006;2023-04-01T13:40:32;98505.60;;;12.68
68127;BMP180;54931;52.098;21.006;2023-04-01T13:49:45;98506.00;;;12.90
68127;BMP180;54931;52.098;21.006;2023-04-01T14:01:15;98516.00;;;12.78
68127;BMP180;54931;52.098;21.006;2023-04-01T14:03:58;98515.40;;;12.50
68127;BMP180;54931;52.098;21.006;2023-04-01T14:10:18;98530.60;;;12.00
68127;BMP180;54931;52.098;21.006;2023-04-01T14:12:55;98535.00;;;11.70
68127;BMP180;54931;52.098;21.006;2023-04-01T14:16:05;98534.20;;;11.36
68127;BMP180;54931;52.098;21.006;2023-04-01T14:19:08;98530.40;;;11.00
68127;BMP180;54931;52.098;21.006;2023-04-01T14:27:41;98539.00;;;10.60
68127;BMP180;54931;52.098;21.006;2023-04-01T14:33:51;98543.40;;;10.46
68127;BMP180;54931;52.098;21.006;2023-04-01T14:48:39;98558.20;;;10.00
68127;BMP180;54931;52.098;21.006;2023-04-01T14:51:29;98566.00;;;9.90
68127;BMP180;54931;52.098;21.006;2023-04-01T14:54:30;98563.00;;;9.82
68127;BMP180;54931;52.098;21.006;2023-04-01T14:57:15;98568.00;;;9.80
68127;BMP180;54931;52.098;21.006;2023-04-01T14:59:54;98569.60;;;9.80
68127;BMP180;54931;52.098;21.006;2023-04-01T15:03:48;98578.60;;;9.80
68127;BMP180;54931;52.098;21.006;2023-04-01T15:05:56;98581.00;;;9.70
68127;BMP180;54931;52.098;21.006;2023-04-01T15:08:50;98588.80;;;9.60
68127;BMP180;54931;52.098;21.006;2023-04-01T15:18:18;98596.20;;;9.40
68127;BMP180;54931;52.098;21.006;2023-04-01T15:21:18;98599.00;;;9.40
68127;BMP180;54931;52.098;21.006;2023-04-01T15:27:04;98607.00;;;9.30
68127;BMP180;54931;52.098;21.006;2023-04-01T15:29:59;98614.00;;;9.30
68127;BMP180;54931;52.098;21.006;2023-04-01T15:32:50;98621.20;;;9.22
68127;BMP180;54931;52.098;21.006;2023-04-01T15:36:04;98626.00;;;9.20
68127;BMP180;54931;52.098;21.006;2023-04-01T15:39:05;98626.40;;;9.10
68127;BMP180;54931;52.098;21.006;2023-04-01T15:50:25;98646.00;;;8.90
68127;BMP180;54931;52.098;21.006;2023-04-01T16:09:02;98673.80;;;8.66
68127;BMP180;54931;52.098;21.006;2023-04-01T16:17:49;98687.60;;;8.60
68127;BMP180;54931;52.098;21.006;2023-04-01T16:20:43;98695.80;;;8.60
68127;BMP180;54931;52.098;21.006;2023-04-01T16:26:37;98700.60;;;8.52
68127;BMP180;54931;52.098;21.006;2023-04-01T16:32:44;98712.40;;;8.50
68127;BMP180;54931;52.098;21.006;2023-04-01T16:38:07;98716.80;;;8.50
68127;BMP180;54931;52.098;21.006;2023-04-01T16:41:01;98723.00;;;8.48
68127;BMP180;54931;52.098;21.006;2023-04-01T16:43:49;98727.00;;;8.48
68127;BMP180;54931;52.098;21.006;2023-04-01T16:47:10;98732.60;;;8.46
68127;BMP180;54931;52.098;21.006;2023-04-01T16:49:42;98738.60;;;8.40
68127;BMP180;54931;52.098;21.006;2023-04-01T16:52:13;98743.60;;;8.40
68127;BMP180;54931;52.098;21.006;2023-04-01T16:55:14;98752.80;;;8.40
68127;BMP180;54931;52.098;21.006;2023-04-01T16:57:52;98757.00;;;8.40
68127;BMP180;54931;52.098;21.006;2023-04-01T17:00:28;98759.20;;;8.40
68127;BMP180;54931;52.098;21.006;2023-04-01T17:09:06;98771.40;;;8.30
68127;BMP180;54931;52.098;21.006;2023-04-01T17:12:06;98775.00;;;8.24
68127;BMP180;54931;52.098;21.006;2023-04-01T17:15:50;98781.80;;;8.20
68127;BMP180;54931;52.098;21.006;2023-04-01T17:18:43;98790.20;;;8.20
68127;BMP180;54931;52.098;21.006;2023-04-01T17:32:26;98813.00;;;8.00
68127;BMP180;54931;52.098;21.006;2023-04-01T17:35:11;98817.40;;;8.00
68127;BMP180;54931;52.098;21.006;2023-04-01T17:50:23;98838.20;;;7.98
68127;BMP180;54931;52.098;21.006;2023-04-01T17:59:16;98857.80;;;8.00
68127;BMP180;54931;52.098;21.006;2023-04-01T18:02:01;98857.60;;;8.00
68127;BMP180;54931;52.098;21.006;2023-04-01T18:13:47;98868.60;;;8.00
68127;BMP180;54931;52.098;21.006;2023-04-01T18:22:43;98880.00;;;8.00
68127;BMP180;54931;52.098;21.006;2023-04-01T18:31:19;98893.60;;;8.00
68127;BMP180;54931;52.098;21.006;2023-04-01T18:34:12;98900.40;;;8.00
68127;BMP180;54931;52.098;21.006;2023-04-01T18:36:53;98903.80;;;8.00
68127;BMP180;54931;52.098;21.006;2023-04-01T18:39:39;98911.00;;;8.00
68127;BMP180;54931;52.098;21.006;2023-04-01T18:45:10;98920.40;;;8.00
68127;BMP180;54931;52.098;21.006;2023-04-01T18:48:00;98923.00;;;7.98
68127;BMP180;54931;52.098;21.006;2023-04-01T18:50:57;98926.60;;;7.90
68127;BMP180;54931;52.098;21.006;2023-04-01T18:57:13;98926.60;;;7.90
68127;BMP180;54931;52.098;21.006;2023-04-01T18:59:52;98931.00;;;7.82
68127;BMP180;54931;52.098;21.006;2023-04-01T19:02:47;98930.20;;;7.80
68127;BMP180;54931;52.098;21.006;2023-04-01T19:05:39;98935.60;;;7.80
68127;BMP180;54931;52.098;21.006;2023-04-01T19:08:33;98939.40;;;7.80
68127;BMP180;54931;52.098;21.006;2023-04-01T19:11:10;98942.80;;;7.70
68127;BMP180;54931;52.098;21.006;2023-04-01T19:17:03;98955.20;;;7.70
68127;BMP180;54931;52.098;21.006;2023-04-01T19:25:44;98968.20;;;7.60
68127;BMP180;54931;52.098;21.006;2023-04-01T19:28:49;98971.40;;;7.60
68127;BMP180;54931;52.098;21.006;2023-04-01T19:37:50;98984.40;;;7.50
68127;BMP180;54931;52.098;21.006;2023-04-01T19:41:04;98984.40;;;7.50
68127;BMP180;54931;52.098;21.006;2023-04-01T19:43:50;98997.40;;;7.50
68127;BMP180;54931;52.098;21.006;2023-04-01T19:47:01;98998.80;;;7.50
68127;BMP180;54931;52.098;21.006;2023-04-01T19:50:01;99003.40;;;7.50
68127;BMP180;54931;52.098;21.006;2023-04-01T19:52:40;99006.60;;;7.44
68127;BMP180;54931;52.098;21.006;2023-04-01T20:01:03;99019.60;;;7.40
68127;BMP180;54931;52.098;21.006;2023-04-01T20:06:44;99024.60;;;7.40
68127;BMP180;54931;52.098;21.006;2023-04-01T20:10:25;99024.40;;;7.40
68127;BMP180;54931;52.098;21.006;2023-04-01T20:13:08;99026.20;;;7.40
68127;BMP180;54931;52.098;21.006;2023-04-01T20:15:46;99018.20;;;7.38
68127;BMP180;54931;52.098;21.006;2023-04-01T20:18:39;99022.40;;;7.30
68127;BMP180;54931;52.098;21.006;2023-04-01T20:26:35;99037.80;;;7.30
68127;BMP180;54931;52.098;21.006;2023-04-01T20:30:04;99037.40;;;7.30
68127;BMP180;54931;52.098;21.006;2023-04-01T20:32:45;99034.20;;;7.30
68127;BMP180;54931;52.098;21.006;2023-04-01T20:50:34;99063.60;;;7.10
68127;BMP180;54931;52.098;21.006;2023-04-01T20:53:20;99066.60;;;7.10
68127;BMP180;54931;52.098;21.006;2023-04-01T20:56:17;99069.20;;;7.10
68127;BMP180;54931;52.098;21.006;2023-04-01T21:03:24;99080.80;;;7.04
68127;BMP180;54931;52.098;21.006;2023-04-01T21:09:06;99090.20;;;7.00
68127;BMP180;54931;52.098;21.006;2023-04-01T21:15:15;99100.20;;;7.00
68127;BMP180;54931;52.098;21.006;2023-04-01T21:26:21;99108.00;;;6.88
68127;BMP180;54931;52.098;21.006;2023-04-01T21:29:18;99115.00;;;6.80
68127;BMP180;54931;52.098;21.006;2023-04-01T21:32:19;99116.80;;;6.80
68127;BMP180;54931;52.098;21.006;2023-04-01T21:47:02;99131.80;;;6.60
68127;BMP180;54931;52.098;21.006;2023-04-01T22:09:12;99154.00;;;6.50
68127;BMP180;54931;52.098;21.006;2023-04-01T22:24:18;99162.00;;;6.50
68127;BMP180;54931;52.098;21.006;2023-04-01T22:27:21;99163.20;;;6.50
68127;BMP180;54931;52.098;21.006;2023-04-01T22:32:49;99163.20;;;6.50
68127;BMP180;54931;52.098;21.006;2023-04-01T22:38:20;99168.00;;;6.50
68127;BMP180;54931;52.098;21.006;2023-04-01T22:41:09;99174.20;;;6.50
68127;BMP180;54931;52.098;21.006;2023-04-01T22:43:44;99175.80;;;6.50
68127;BMP180;54931;52.098;21.006;2023-04-01T22:46:26;99175.00;;;6.48
68127;BMP180;54931;52.098;21.006;2023-04-01T22:49:21;99178.40;;;6.50
68127;BMP180;54931;52.098;21.006;2023-04-01T22:52:05;99183.40;;;6.50
68127;BMP180;54931;52.098;21.006;2023-04-01T22:55:03;99183.60;;;6.40
68127;BMP180;54931;52.098;21.006;2023-04-01T22:57:50;99193.20;;;6.42
68127;BMP180;54931;52.098;21.006;2023-04-01T23:00:50;99194.40;;;6.42
68127;BMP180;54931;52.098;21.006;2023-04-01T23:03:30;99194.60;;;6.40
68127;BMP180;54931;52.098;21.006;2023-04-01T23:06:02;99197.20;;;6.40
68127;BMP180;54931;52.098;21.006;2023-04-01T23:09:24;99201.60;;;6.40
68127;BMP180;54931;52.098;21.006;2023-04-01T23:12:12;99203.00;;;6.40
68127;BMP180;54931;52.098;21.006;2023-04-01T23:14:48;99205.80;;;6.40
68127;BMP180;54931;52.098;21.006;2023-04-01T23:20:35;99206.20;;;6.40
68127;BMP180;54931;52.098;21.006;2023-04-01T23:28:52;99214.40;;;6.30
68127;BMP180;54931;52.098;21.006;2023-04-01T23:31:43;99217.60;;;6.30
68127;BMP180;54931;52.098;21.006;2023-04-01T23:37:10;99220.60;;;6.20
68127;BMP180;54931;52.098;21.006;2023-04-01T23:39:46;99225.40;;;6.20
68127;BMP180;54931;52.098;21.006;2023-04-01T23:42:29;99228.20;;;6.20
68127;BMP180;54931;52.098;21.006;2023-04-01T23:45:18;99230.80;;;6.20
68127;BMP180;54931;52.098;21.006;2023-04-01T23:47:49;99236.60;;;6.20
68127;BMP180;54931;52.098;21.006;2023-04-01T23:50:23;99238.20;;;6.20
68127;BMP180;54931;52.098;21.006;2023-04-01T23:53:02;99240.00;;;6.10
68127;BMP180;54931;52.098;21.006;2023-04-01T23:55:34;99245.20;;;6.10
68127;BMP180;54931;52.098;21.006;2023-04-01T23:58:26;99246.60;;;6.10
